KBEH/BEH METAR and TAF weather

Enter ICAO airport designator
Station Type Date Time Source
KBEH METAR 2020/01/19 22:53 UTC NOAA

KBEH 192253Z AUTO VRB06KT 10SM BKN032 M02/M09 A3029 RMK AO2 SNE2155 SLP268 P0000 T10221089 $


Station Type Date Time Source
KBEH Decoded METAR 2020/01/19 22:53 UTC NOAA

SOUTHWEST MICHIGAN REGIONAL, MI, United States (KBEH) 42-08N 86-25W 191M
Jan 19, 2020 - 05:53 PM EST / 2020.01.19 2253 UTC
Wind: Variable at 7 MPH (6 KT):0
Visibility: 10 mile(s):0
Sky conditions: mostly cloudy
Precipitation last hour: A trace
Temperature: 28.0 F (-2.2 C)
Windchill: 21 F (-6 C):1
Dew Point: 16.0 F (-8.9 C)
Relative Humidity: 60%
Pressure (altimeter): 30.29 in. Hg (1025 hPa)
ob: KBEH 192253Z AUTO VRB06KT 10SM BKN032 M02/M09 A3029 RMK AO2 SNE2155 SLP268 P0000 T10221089
cycle: 23

Station Type Date Time Source
KBEH TAF UTC NOAA

Error!

Example: see airport list